createdAt,value
2023-01-30T00:03:23.915Z,30.70
2023-01-30T00:08:26.044Z,33.72
2023-01-30T00:13:27.626Z,30.90
2023-01-30T00:18:29.744Z,34.10
2023-01-30T00:23:32.924Z,31.92
2023-01-30T00:28:35.537Z,32.53
2023-01-30T00:33:39.620Z,33.35
2023-01-30T00:38:41.479Z,34.33
2023-01-30T00:44:01.711Z,34.27
2023-01-30T00:49:03.386Z,32.95
2023-01-30T00:54:05.109Z,34.60
2023-01-30T00:59:06.925Z,34.10
2023-01-30T01:04:10.406Z,32.60
2023-01-30T01:09:12.168Z,37.95
2023-01-30T01:14:15.344Z,33.05
2023-01-30T01:19:17.416Z,32.07
2023-01-30T01:24:19.150Z,31.58
2023-01-30T01:29:20.948Z,35.83
2023-01-30T01:34:22.688Z,34.65
2023-01-30T01:39:24.350Z,33.13
2023-01-30T01:44:26.041Z,32.03
2023-01-30T01:49:35.233Z,31.40
2023-01-30T01:54:45.239Z,31.65
2023-01-30T01:59:54.771Z,32.60
2023-01-30T02:05:02.955Z,32.25
2023-01-30T02:10:06.704Z,29.95
2023-01-30T02:15:08.936Z,33.15
2023-01-30T02:20:32.312Z,33.00
2023-01-30T02:26:05.204Z,32.72
2023-01-30T02:31:25.979Z,33.30
2023-01-30T02:36:28.204Z,30.67
2023-01-30T02:41:47.342Z,32.78
2023-01-30T02:47:07.880Z,32.53
2023-01-30T02:52:12.547Z,30.60
2023-01-30T02:57:23.259Z,31.92
2023-01-30T03:03:07.446Z,29.17
2023-01-30T03:08:54.038Z,29.10
2023-01-30T03:14:06.275Z,32.00
2023-01-30T03:19:13.734Z,32.45
2023-01-30T03:24:16.742Z,30.73
2023-01-30T03:29:18.487Z,35.70
2023-01-30T03:34:20.261Z,33.40
2023-01-30T03:39:24.351Z,31.70
2023-01-30T03:44:26.862Z,33.22
2023-01-30T03:49:28.768Z,29.40
2023-01-30T03:54:32.115Z,32.58
2023-01-30T03:59:34.165Z,31.58
2023-01-30T04:04:41.316Z,31.50
2023-01-30T04:09:45.347Z,32.17
2023-01-30T04:20:01.278Z,34.22
2023-01-30T04:25:05.575Z,30.77
2023-01-30T04:30:07.869Z,34.50
2023-01-30T04:35:10.395Z,32.95
2023-01-30T04:40:13.089Z,35.67
2023-01-30T04:45:15.120Z,37.72
2023-01-30T04:50:18.154Z,35.92
2023-01-30T04:55:20.183Z,33.50
2023-01-30T05:00:22.124Z,34.85
2023-01-30T05:05:29.343Z,33.30
2023-01-30T05:10:31.365Z,37.78
2023-01-30T05:15:33.842Z,35.10
2023-01-30T05:20:38.007Z,35.20
2023-01-30T05:25:39.711Z,30.63
2023-01-30T05:30:41.613Z,37.33
2023-01-30T05:35:47.797Z,35.85
2023-01-30T05:41:04.024Z,35.08
2023-01-30T05:46:06.714Z,33.55
2023-01-30T05:56:18.038Z,33.15
2023-01-30T06:01:20.109Z,33.08
2023-01-30T06:06:22.777Z,37.60
2023-01-30T06:11:25.076Z,33.42
2023-01-30T06:16:26.899Z,35.35
2023-01-30T06:21:28.572Z,33.70
2023-01-30T06:26:30.470Z,29.90
2023-01-30T06:31:32.135Z,33.50
2023-01-30T06:36:33.928Z,30.90
2023-01-30T06:41:35.659Z,34.33
2023-01-30T06:46:37.294Z,33.60
2023-01-30T06:51:39.081Z,34.07
2023-01-30T06:56:40.994Z,35.55
2023-01-30T07:01:42.742Z,35.03
2023-01-30T07:06:44.463Z,37.57
2023-01-30T07:11:47.690Z,35.90
2023-01-30T07:16:49.346Z,34.17
2023-01-30T07:21:51.157Z,34.93
2023-01-30T07:26:52.796Z,33.83
2023-01-30T07:31:54.574Z,32.40
2023-01-30T07:36:56.247Z,35.37
2023-01-30T07:42:00.847Z,34.87
2023-01-30T07:47:02.562Z,31.83
2023-01-30T07:52:04.236Z,33.13
2023-01-30T07:57:06.034Z,33.70
2023-01-30T08:02:10.148Z,34.93
2023-01-30T08:07:11.946Z,31.83
2023-01-30T08:12:13.657Z,30.03
2023-01-30T08:17:15.252Z,34.17
2023-01-30T08:22:17.364Z,33.63
2023-01-30T08:27:19.049Z,28.80
2023-01-30T08:32:20.727Z,30.40
2023-01-30T08:37:22.359Z,21.83
2023-01-30T08:42:24.030Z,27.33
2023-01-30T08:47:25.776Z,25.33
2023-01-30T08:52:27.465Z,28.70
2023-01-30T08:57:29.128Z,27.10
2023-01-30T09:02:31.112Z,25.70
2023-01-30T09:07:33.327Z,20.73
2023-01-30T09:12:35.212Z,22.55
2023-01-30T09:17:38.217Z,22.73
2023-01-30T09:22:39.951Z,24.20
2023-01-30T09:27:44.448Z,18.50
2023-01-30T09:32:46.150Z,24.90
2023-01-30T09:37:50.473Z,23.87
2023-01-30T09:42:59.979Z,22.17
2023-01-30T09:48:20.784Z,18.13
2023-01-30T09:53:59.483Z,20.63
2023-01-30T09:59:04.406Z,17.55
2023-01-30T10:04:14.730Z,19.23
2023-01-30T10:09:46.835Z,21.13
2023-01-30T10:15:14.680Z,16.25
2023-01-30T10:20:34.704Z,18.52
2023-01-30T10:25:47.152Z,17.63
2023-01-30T10:30:52.739Z,17.65
2023-01-30T10:36:06.541Z,17.63
2023-01-30T10:41:31.959Z,17.70
2023-01-30T10:46:52.387Z,16.17
2023-01-30T10:52:00.113Z,15.30
2023-01-30T10:57:11.925Z,11.55
2023-01-30T11:02:16.579Z,14.90
2023-01-30T11:07:18.928Z,13.05
2023-01-30T11:12:20.678Z,15.48
2023-01-30T11:17:32.786Z,14.93
2023-01-30T11:22:36.746Z,16.23
2023-01-30T11:27:42.481Z,14.65
2023-01-30T11:32:47.651Z,12.10
2023-01-30T11:37:53.300Z,11.02
2023-01-30T11:43:10.440Z,9.40
2023-01-30T11:48:34.104Z,8.68
2023-01-30T11:53:56.174Z,9.43
2023-01-30T11:59:28.106Z,8.65
2023-01-30T12:04:30.017Z,9.93
2023-01-30T12:09:35.679Z,10.63
2023-01-30T12:14:43.465Z,8.73
2023-01-30T12:19:51.865Z,8.20
2023-01-30T12:25:25.160Z,9.75
2023-01-30T12:35:54.459Z,9.90
2023-01-30T12:41:31.487Z,10.73
2023-01-30T12:46:58.814Z,9.20
2023-01-30T12:52:31.928Z,10.35
2023-01-30T12:58:00.526Z,11.02
2023-01-30T13:03:23.741Z,17.40
2023-01-30T13:08:35.455Z,13.13
2023-01-30T13:13:46.053Z,13.68
2023-01-30T13:19:12.660Z,13.23
2023-01-30T13:24:43.450Z,12.88
2023-01-30T13:29:47.748Z,13.95
2023-01-30T13:34:50.677Z,13.95
2023-01-30T13:40:17.212Z,14.82
2023-01-30T13:45:26.656Z,15.15
2023-01-30T13:50:55.130Z,13.18
2023-01-30T13:56:40.686Z,17.70
2023-01-30T14:02:02.059Z,18.88
2023-01-30T14:07:09.637Z,22.27
2023-01-30T14:12:24.805Z,20.25
2023-01-30T14:17:26.915Z,20.20
2023-01-30T14:22:35.349Z,22.00
2023-01-30T14:27:37.028Z,19.88
2023-01-30T14:32:55.775Z,25.13
2023-01-30T14:38:06.641Z,28.65
2023-01-30T14:43:20.370Z,24.95
2023-01-30T14:48:37.602Z,24.52
2023-01-30T14:53:59.168Z,22.23
2023-01-30T14:59:03.983Z,26.40
2023-01-30T15:04:05.781Z,26.50
2023-01-30T15:09:09.450Z,23.03
2023-01-30T15:14:20.293Z,25.83
2023-01-30T15:20:02.441Z,23.88
2023-01-30T15:25:30.806Z,27.65
2023-01-30T15:30:39.662Z,23.80
2023-01-30T15:35:42.912Z,29.17
2023-01-30T15:40:45.653Z,28.80
2023-01-30T15:46:11.789Z,28.70
2023-01-30T15:51:16.847Z,30.80
2023-01-30T15:56:28.852Z,26.08
2023-01-30T16:01:31.054Z,20.87
2023-01-30T16:06:37.493Z,22.80
2023-01-30T16:11:42.079Z,20.30
2023-01-30T16:16:46.708Z,16.65
2023-01-30T16:21:48.771Z,19.17
2023-01-30T16:26:55.227Z,16.40
2023-01-30T16:31:57.324Z,15.57
2023-01-30T16:37:07.602Z,14.75
2023-01-30T16:42:25.792Z,16.70
2023-01-30T16:47:31.433Z,16.23
2023-01-30T16:52:44.034Z,17.17
2023-01-30T16:57:53.105Z,16.95
2023-01-30T17:02:58.162Z,13.70
2023-01-30T17:08:00.541Z,14.95
2023-01-30T17:13:02.449Z,17.30
2023-01-30T17:18:04.467Z,14.17
2023-01-30T17:23:09.314Z,16.73
2023-01-30T17:28:18.187Z,15.95
2023-01-30T17:33:20.120Z,16.30
2023-01-30T17:38:21.866Z,16.60
2023-01-30T17:43:24.206Z,18.10
2023-01-30T17:48:25.825Z,14.57
2023-01-30T17:53:27.484Z,13.50
2023-01-30T17:58:29.455Z,15.70
2023-01-30T18:03:31.268Z,15.87
2023-01-30T18:08:32.952Z,18.97
2023-01-30T18:13:35.669Z,18.73
2023-01-30T18:18:38.002Z,17.73
2023-01-30T18:23:39.773Z,13.30
2023-01-30T18:28:41.567Z,15.63
2023-01-30T18:33:45.437Z,11.67
2023-01-30T18:38:47.851Z,14.45
2023-01-30T18:44:15.732Z,14.98
2023-01-30T18:49:17.417Z,15.65
2023-01-30T18:54:19.074Z,13.50
2023-01-30T19:04:23.549Z,14.80
2023-01-30T19:09:26.696Z,12.18
2023-01-30T19:14:28.488Z,14.43
2023-01-30T19:19:30.150Z,12.70
2023-01-30T19:24:31.847Z,13.20
2023-01-30T19:29:33.540Z,12.27
2023-01-30T19:34:35.238Z,12.77
2023-01-30T19:39:36.961Z,12.15
2023-01-30T19:44:40.880Z,13.77
2023-01-30T19:49:42.627Z,12.93
2023-01-30T19:54:46.884Z,11.40
2023-01-30T19:59:48.593Z,9.65
2023-01-30T20:04:50.246Z,13.15
2023-01-30T20:09:51.987Z,16.52
2023-01-30T20:14:53.674Z,13.02
2023-01-30T20:19:55.376Z,11.98
2023-01-30T20:24:57.104Z,11.75
2023-01-30T20:29:58.901Z,11.93
2023-01-30T20:35:00.749Z,12.23
2023-01-30T20:40:02.451Z,12.15
2023-01-30T20:45:04.672Z,11.07
2023-01-30T20:50:06.608Z,14.55
2023-01-30T20:55:08.845Z,13.83
2023-01-30T21:00:12.541Z,11.80
2023-01-30T21:05:14.292Z,11.45
2023-01-30T21:10:16.332Z,11.67
2023-01-30T21:15:18.230Z,11.97
2023-01-30T21:20:20.220Z,10.33
2023-01-30T21:25:22.151Z,12.50
2023-01-30T21:30:23.818Z,10.77
2023-01-30T21:35:25.424Z,8.52
2023-01-30T21:40:45.500Z,12.95
2023-01-30T21:45:47.215Z,8.93
2023-01-30T21:50:49.200Z,10.55
2023-01-30T22:00:54.181Z,10.48
2023-01-30T22:05:55.967Z,11.17
2023-01-30T22:11:13.433Z,8.97
2023-01-30T22:16:20.860Z,13.20
2023-01-30T22:21:24.620Z,8.73
2023-01-30T22:26:26.860Z,15.02
2023-01-30T22:31:34.284Z,10.23
2023-01-30T22:36:36.186Z,12.70
2023-01-30T22:41:38.603Z,12.93
2023-01-30T22:46:41.272Z,14.25
2023-01-30T22:56:48.809Z,13.80
2023-01-30T23:01:51.215Z,11.95
2023-01-30T23:06:52.996Z,15.07
2023-01-30T23:12:16.270Z,10.85
2023-01-30T23:17:36.930Z,13.57
2023-01-30T23:22:38.960Z,10.88
2023-01-30T23:27:40.676Z,12.40
2023-01-30T23:32:42.355Z,9.80
2023-01-30T23:38:02.777Z,14.50
2023-01-30T23:43:04.458Z,11.75
2023-01-30T23:48:08.468Z,11.13
2023-01-30T23:53:10.686Z,12.15
2023-01-30T23:58:12.308Z,11.10
